Time;durP1;ratioP1;P1;durP2;ratioP2;P2;SDS_P1;SDS_P2;PMS_P1;PMS_P2;Temp;Humidity;BMP_temperature;BMP_pressure;BME280_temperature;BME280_humidity;BME280_pressure;Samples;Min_cycle;Max_cycle;Signal;HPM_P1;HPM_P2
2022/10/20 00:00:45;;;;;;;8.98;7.07;;;;;;;;;;5141623;27;20033;-75
2022/10/20 00:03:30;;;;;;;14.60;6.72;;;;;;;;;;5142350;27;20448;-76
2022/10/20 00:06:36;;;;;;;12.68;7.40;;;;;;;;;;5146907;27;20026;-75
2022/10/20 00:09:22;;;;;;;11.07;7.35;;;;;;;;;;5144450;27;20015;-75
2022/10/20 00:12:07;;;;;;;19.30;7.18;;;;;;;;;;5157215;27;20106;-76
2022/10/20 00:14:53;;;;;;;10.80;7.20;;;;;;;;;;5160262;27;20019;-75
2022/10/20 00:17:38;;;;;;;12.68;7.07;;;;;;;;;;5162809;27;20337;-76
2022/10/20 00:20:24;;;;;;;12.50;6.75;;;;;;;;;;5164346;27;20023;-78
2022/10/20 00:23:10;;;;;;;10.27;6.93;;;;;;;;;;5152834;27;20034;-76
2022/10/20 00:26:02;;;;;;;13.20;6.88;;;;;;;;;;5152582;27;20018;-76
2022/10/20 00:28:48;;;;;;;12.38;7.07;;;;;;;;;;5161754;27;20097;-75
2022/10/20 00:31:34;;;;;;;11.18;6.95;;;;;;;;;;5141292;27;20075;-77
2022/10/20 00:34:19;;;;;;;10.82;7.32;;;;;;;;;;5160117;27;20090;-76
2022/10/20 00:37:05;;;;;;;10.68;6.82;;;;;;;;;;5154861;27;20070;-76
2022/10/20 00:39:50;;;;;;;10.00;7.25;;;;;;;;;;5155436;27;20019;-77
2022/10/20 00:42:36;;;;;;;11.70;7.45;;;;;;;;;;5155122;27;20337;-75
2022/10/20 00:45:22;;;;;;;14.27;8.02;;;;;;;;;;5154470;27;20109;-76
2022/10/20 00:48:12;;;;;;;10.77;7.10;;;;;;;;;;5154813;27;20022;-76
2022/10/20 00:50:58;;;;;;;15.98;7.32;;;;;;;;;;5156168;27;20030;-77
2022/10/20 00:53:44;;;;;;;15.90;8.27;;;;;;;;;;5147572;27;20149;-77
2022/10/20 00:56:30;;;;;;;15.98;9.95;;;;;;;;;;5159020;27;20411;-77
2022/10/20 00:59:18;;;;;;;17.20;10.30;;;;;;;;;;5155461;27;20034;-77
2022/10/20 01:02:05;;;;;;;15.60;10.40;;;;;;;;;;5139653;27;20046;-76
2022/10/20 01:04:51;;;;;;;15.32;9.90;;;;;;;;;;5159255;27;20451;-77
2022/10/20 01:07:36;;;;;;;13.95;9.40;;;;;;;;;;5143829;27;20018;-77
2022/10/20 01:10:24;;;;;;;14.98;9.25;;;;;;;;;;5143731;27;20022;-76
2022/10/20 01:13:15;;;;;;;14.32;8.43;;;;;;;;;;5144779;27;20037;-76
2022/10/20 01:16:03;;;;;;;16.15;8.77;;;;;;;;;;5145640;27;20354;-76
2022/10/20 01:19:00;;;;;;;16.33;8.55;;;;;;;;;;5151815;27;20007;-75
2022/10/20 01:22:01;;;;;;;12.77;8.40;;;;;;;;;;5175151;27;20487;-76
2022/10/20 01:24:54;;;;;;;13.35;8.50;;;;;;;;;;5167054;27;20038;-76
2022/10/20 01:27:47;;;;;;;12.60;8.35;;;;;;;;;;5159040;27;20014;-77
2022/10/20 01:30:34;;;;;;;12.50;8.25;;;;;;;;;;5158936;27;20082;-76
2022/10/20 01:33:31;;;;;;;14.07;8.45;;;;;;;;;;5158418;27;20014;-77
2022/10/20 01:36:17;;;;;;;12.23;8.55;;;;;;;;;;5158933;27;20114;-77
2022/10/20 01:39:05;;;;;;;13.48;9.25;;;;;;;;;;5178103;27;20006;-75
2022/10/20 01:42:11;;;;;;;14.25;8.70;;;;;;;;;;5151719;27;20014;-76
2022/10/20 01:44:59;;;;;;;16.63;9.05;;;;;;;;;;5158988;27;20027;-76
2022/10/20 01:47:45;;;;;;;16.33;9.52;;;;;;;;;;5158069;27;20450;-76
2022/10/20 01:50:33;;;;;;;13.68;9.10;;;;;;;;;;5160121;27;20308;-75
2022/10/20 01:53:19;;;;;;;16.75;9.68;;;;;;;;;;5158873;27;20367;-76
2022/10/20 01:56:05;;;;;;;15.65;9.27;;;;;;;;;;5158284;27;20113;-77
2022/10/20 01:59:02;;;;;;;16.48;9.85;;;;;;;;;;5143056;27;20110;-76
2022/10/20 02:01:57;;;;;;;21.70;10.88;;;;;;;;;;5158601;27;20029;-77
2022/10/20 02:04:43;;;;;;;19.25;9.90;;;;;;;;;;5143207;27;20440;-76
2022/10/20 02:07:29;;;;;;;19.17;9.95;;;;;;;;;;5142791;27;20030;-77
2022/10/20 02:10:15;;;;;;;14.52;10.00;;;;;;;;;;5157665;27;20019;-76
2022/10/20 02:13:04;;;;;;;16.67;9.88;;;;;;;;;;5158094;27;20087;-76
2022/10/20 02:15:51;;;;;;;16.85;9.77;;;;;;;;;;5142769;27;20025;-76
2022/10/20 02:18:41;;;;;;;16.88;10.38;;;;;;;;;;5157212;27;20450;-76
2022/10/20 02:21:27;;;;;;;18.13;10.45;;;;;;;;;;5141793;27;20026;-77
2022/10/20 02:24:13;;;;;;;15.07;9.40;;;;;;;;;;5157482;27;20023;-76
2022/10/20 02:27:01;;;;;;;18.95;10.50;;;;;;;;;;5157025;27;20021;-76
2022/10/20 02:29:58;;;;;;;17.45;9.55;;;;;;;;;;5157792;27;20393;-76
2022/10/20 02:32:48;;;;;;;17.20;10.43;;;;;;;;;;5157275;27;20019;-76
2022/10/20 02:35:33;;;;;;;18.58;10.05;;;;;;;;;;5141871;27;20015;-76
2022/10/20 02:38:19;;;;;;;21.13;11.40;;;;;;;;;;5155475;27;20050;-77
2022/10/20 02:41:05;;;;;;;17.55;11.00;;;;;;;;;;5156393;27;20137;-76
2022/10/20 02:43:50;;;;;;;21.85;10.70;;;;;;;;;;5155866;27;20018;-76
2022/10/20 02:46:36;;;;;;;17.80;10.85;;;;;;;;;;5157315;27;20087;-75
2022/10/20 02:49:21;;;;;;;16.23;11.15;;;;;;;;;;5156996;27;20042;-76
2022/10/20 02:52:07;;;;;;;20.48;11.50;;;;;;;;;;5156586;27;20113;-76
2022/10/20 02:54:53;;;;;;;18.48;10.95;;;;;;;;;;5157413;27;20019;-76
2022/10/20 02:57:38;;;;;;;20.40;11.68;;;;;;;;;;5156070;27;20022;-76
2022/10/20 03:00:28;;;;;;;18.52;11.65;;;;;;;;;;5156847;27;20120;-76
2022/10/20 03:03:13;;;;;;;17.20;10.63;;;;;;;;;;5156855;27;20449;-77
2022/10/20 03:06:05;;;;;;;18.63;10.52;;;;;;;;;;5156220;27;20087;-76
2022/10/20 03:08:51;;;;;;;21.63;11.20;;;;;;;;;;5156539;27;20023;-77
2022/10/20 03:11:36;;;;;;;19.60;11.60;;;;;;;;;;5156770;27;20019;-77
2022/10/20 03:14:22;;;;;;;21.75;11.63;;;;;;;;;;5141326;27;20436;-76
2022/10/20 03:17:08;;;;;;;21.13;12.00;;;;;;;;;;5155890;27;20023;-76
2022/10/20 03:19:53;;;;;;;23.40;11.85;;;;;;;;;;5156127;27;20101;-77
2022/10/20 03:22:39;;;;;;;22.42;12.02;;;;;;;;;;5155924;27;20030;-77
2022/10/20 03:25:24;;;;;;;23.45;11.80;;;;;;;;;;5141125;27;20046;-75
2022/10/20 03:28:10;;;;;;;26.17;12.70;;;;;;;;;;5155239;27;20338;-76
2022/10/20 03:30:56;;;;;;;25.23;13.13;;;;;;;;;;5156645;27;20033;-76
2022/10/20 03:33:42;;;;;;;24.77;12.30;;;;;;;;;;5155896;27;20018;-77
2022/10/20 03:36:27;;;;;;;22.67;12.55;;;;;;;;;;5155973;27;20038;-76
2022/10/20 03:39:13;;;;;;;27.65;12.95;;;;;;;;;;5155941;27;20447;-77
2022/10/20 03:41:58;;;;;;;26.27;14.02;;;;;;;;;;5156526;27;20050;-76
2022/10/20 03:44:44;;;;;;;30.52;14.40;;;;;;;;;;5155451;27;20015;-76
2022/10/20 03:47:30;;;;;;;24.13;14.85;;;;;;;;;;5155337;27;20411;-76
2022/10/20 03:50:15;;;;;;;26.80;14.82;;;;;;;;;;5156126;27;20459;-76
2022/10/20 03:53:01;;;;;;;30.42;15.10;;;;;;;;;;5155732;27;20481;-76
2022/10/20 03:55:47;;;;;;;30.85;15.85;;;;;;;;;;5155608;27;20042;-75
2022/10/20 03:58:32;;;;;;;31.00;16.48;;;;;;;;;;5155902;27;20452;-76
2022/10/20 04:01:20;;;;;;;28.85;17.02;;;;;;;;;;5147937;27;20023;-74
2022/10/20 04:04:06;;;;;;;32.65;18.02;;;;;;;;;;5170324;27;20022;-76
2022/10/20 04:06:51;;;;;;;31.25;17.50;;;;;;;;;;5156227;27;20022;-76
2022/10/20 04:09:37;;;;;;;30.73;17.27;;;;;;;;;;5140488;27;20015;-75
2022/10/20 04:12:23;;;;;;;32.92;17.08;;;;;;;;;;5155563;27;20030;-76
2022/10/20 04:15:09;;;;;;;33.08;16.65;;;;;;;;;;5155262;27;20023;-75
2022/10/20 04:17:54;;;;;;;39.45;16.77;;;;;;;;;;5154886;27;20019;-74
2022/10/20 04:20:40;;;;;;;29.75;17.77;;;;;;;;;;5155719;27;20018;-73
2022/10/20 04:23:26;;;;;;;30.67;17.45;;;;;;;;;;5160238;27;20023;-74
2022/10/20 04:26:12;;;;;;;29.23;16.33;;;;;;;;;;5169447;27;20011;-74
2022/10/20 04:28:58;;;;;;;33.65;17.33;;;;;;;;;;5158087;27;20015;-75
2022/10/20 04:31:44;;;;;;;42.50;18.67;;;;;;;;;;5155465;27;20466;-74
2022/10/20 04:34:29;;;;;;;36.03;18.42;;;;;;;;;;5154901;27;20019;-74
2022/10/20 04:37:15;;;;;;;35.33;18.42;;;;;;;;;;5139486;27;20427;-77
2022/10/20 04:40:00;;;;;;;36.28;19.27;;;;;;;;;;5159389;27;20455;-76
2022/10/20 04:42:46;;;;;;;32.55;16.77;;;;;;;;;;5158759;27;20087;-78
2022/10/20 04:45:32;;;;;;;30.33;17.25;;;;;;;;;;5159360;27;20018;-77
2022/10/20 04:48:17;;;;;;;41.20;17.42;;;;;;;;;;5158451;27;20585;-76
2022/10/20 04:51:05;;;;;;;33.38;17.90;;;;;;;;;;5158802;27;20432;-76
2022/10/20 04:53:50;;;;;;;29.60;16.63;;;;;;;;;;5143370;27;20019;-75
2022/10/20 04:56:36;;;;;;;30.92;17.73;;;;;;;;;;5158539;27;20015;-76
2022/10/20 04:59:22;;;;;;;30.13;17.67;;;;;;;;;;5159585;27;20025;-76
2022/10/20 05:02:07;;;;;;;32.92;16.35;;;;;;;;;;5158605;27;20508;-77
2022/10/20 05:04:53;;;;;;;28.77;15.73;;;;;;;;;;5159535;27;20372;-76
2022/10/20 05:07:38;;;;;;;30.48;15.73;;;;;;;;;;5159445;27;20030;-76
2022/10/20 05:10:24;;;;;;;33.90;15.38;;;;;;;;;;5159517;27;20072;-77
2022/10/20 05:13:10;;;;;;;29.40;15.50;;;;;;;;;;5159783;27;20030;-76
2022/10/20 05:15:55;;;;;;;33.15;15.13;;;;;;;;;;5159393;27;20444;-76
2022/10/20 05:18:41;;;;;;;30.02;15.55;;;;;;;;;;5159348;27;20433;-76
2022/10/20 05:21:27;;;;;;;35.50;15.90;;;;;;;;;;5159518;27;20159;-77
2022/10/20 05:24:14;;;;;;;34.35;16.52;;;;;;;;;;5143684;27;20015;-76
2022/10/20 05:27:00;;;;;;;45.53;15.93;;;;;;;;;;5158127;27;20015;-76
2022/10/20 05:29:45;;;;;;;29.38;17.33;;;;;;;;;;5158224;27;20015;-75
2022/10/20 05:32:31;;;;;;;29.40;17.30;;;;;;;;;;5158361;27;20102;-77
2022/10/20 05:35:16;;;;;;;29.05;17.17;;;;;;;;;;5158523;27;20011;-76
2022/10/20 05:38:02;;;;;;;28.30;16.52;;;;;;;;;;5157452;27;20038;-76
2022/10/20 05:40:47;;;;;;;28.85;16.58;;;;;;;;;;5157954;27;20015;-76
2022/10/20 05:43:33;;;;;;;35.58;15.75;;;;;;;;;;5159011;27;20093;-75
2022/10/20 05:46:19;;;;;;;34.78;16.08;;;;;;;;;;5156953;27;20155;-75
2022/10/20 05:49:04;;;;;;;33.25;16.35;;;;;;;;;;5141566;27;20026;-76
2022/10/20 05:51:50;;;;;;;33.53;15.35;;;;;;;;;;5143673;27;20467;-76
2022/10/20 05:54:36;;;;;;;27.65;15.70;;;;;;;;;;5158836;27;20105;-75
2022/10/20 05:57:21;;;;;;;27.13;15.10;;;;;;;;;;5157466;27;20106;-76
2022/10/20 06:00:07;;;;;;;22.17;14.88;;;;;;;;;;5143110;27;20011;-76
2022/10/20 06:02:53;;;;;;;24.55;15.52;;;;;;;;;;5142246;27;20456;-77
2022/10/20 06:05:39;;;;;;;24.23;15.52;;;;;;;;;;5158118;27;20027;-75
2022/10/20 06:08:24;;;;;;;26.42;15.23;;;;;;;;;;5142232;27;20027;-75
2022/10/20 06:11:10;;;;;;;24.88;14.55;;;;;;;;;;5157540;27;20087;-76
2022/10/20 06:13:56;;;;;;;28.10;15.13;;;;;;;;;;5157738;27;20015;-75
2022/10/20 06:16:42;;;;;;;27.00;15.60;;;;;;;;;;5157691;27;20021;-77
2022/10/20 06:19:28;;;;;;;26.45;15.30;;;;;;;;;;5156962;27;20011;-78
2022/10/20 06:22:13;;;;;;;28.90;15.68;;;;;;;;;;5157718;27;20455;-77
2022/10/20 06:24:59;;;;;;;25.15;14.98;;;;;;;;;;5157624;27;20023;-78
2022/10/20 06:27:44;;;;;;;26.08;15.68;;;;;;;;;;5156585;27;20379;-75
2022/10/20 06:30:30;;;;;;;25.92;15.70;;;;;;;;;;5157083;27;20359;-75
2022/10/20 06:33:16;;;;;;;25.50;17.23;;;;;;;;;;5157324;27;20019;-77
2022/10/20 06:36:01;;;;;;;31.80;17.25;;;;;;;;;;5157672;27;20014;-78
2022/10/20 06:38:47;;;;;;;31.00;16.70;;;;;;;;;;5156480;27;20043;-77
2022/10/20 06:41:33;;;;;;;23.88;13.40;;;;;;;;;;5156566;27;20441;-77
2022/10/20 06:44:20;;;;;;;20.20;10.50;;;;;;;;;;5156911;27;20031;-77
2022/10/20 06:47:09;;;;;;;20.05;11.30;;;;;;;;;;5141297;27;20023;-78
2022/10/20 06:49:54;;;;;;;21.52;11.23;;;;;;;;;;5142703;27;20109;-77
2022/10/20 06:52:40;;;;;;;19.65;10.98;;;;;;;;;;5157053;27;20352;-77
2022/10/20 06:55:25;;;;;;;22.70;10.68;;;;;;;;;;5156895;27;20029;-76
2022/10/20 06:58:11;;;;;;;23.30;10.88;;;;;;;;;;5141818;27;20011;-76
2022/10/20 07:01:00;;;;;;;13.23;7.55;;;;;;;;;;5155901;27;20102;-77
2022/10/20 07:03:46;;;;;;;36.00;22.23;;;;;;;;;;5156319;27;20011;-76
2022/10/20 07:06:36;;;;;;;11.07;6.22;;;;;;;;;;5156138;27;20030;-78
2022/10/20 07:09:22;;;;;;;10.90;6.07;;;;;;;;;;5156388;27;20019;-76
2022/10/20 07:12:08;;;;;;;13.32;5.22;;;;;;;;;;5156041;27;20378;-76
2022/10/20 07:14:53;;;;;;;14.18;4.22;;;;;;;;;;5156599;27;20025;-78
2022/10/20 07:17:39;;;;;;;11.55;4.43;;;;;;;;;;5155551;27;20087;-75
2022/10/20 07:20:24;;;;;;;10.48;3.88;;;;;;;;;;5155082;27;20027;-76
2022/10/20 07:23:10;;;;;;;10.00;4.20;;;;;;;;;;5156563;27;20019;-76
2022/10/20 07:26:00;;;;;;;6.38;3.50;;;;;;;;;;5155430;27;20340;-77
2022/10/20 07:28:47;;;;;;;10.60;3.45;;;;;;;;;;5156487;27;20022;-75
2022/10/20 07:31:35;;;;;;;5.60;2.80;;;;;;;;;;5140429;27;20087;-78
2022/10/20 07:34:22;;;;;;;11.15;3.10;;;;;;;;;;5140782;27;20029;-75
2022/10/20 07:37:07;;;;;;;9.05;3.60;;;;;;;;;;5141088;27;20062;-78
2022/10/20 07:39:53;;;;;;;9.77;3.47;;;;;;;;;;5156275;27;20026;-76
2022/10/20 07:42:38;;;;;;;18.20;3.65;;;;;;;;;;5155488;27;20033;-77
2022/10/20 07:45:24;;;;;;;7.22;3.10;;;;;;;;;;5155307;27;20057;-78
2022/10/20 07:48:10;;;;;;;6.40;2.95;;;;;;;;;;5156143;27;20110;-76
2022/10/20 07:51:11;;;;;;;8.07;3.38;;;;;;;;;;5139847;27;20033;-76
2022/10/20 07:54:01;;;;;;;3.63;2.92;;;;;;;;;;5141685;27;20348;-77
2022/10/20 07:56:48;;;;;;;9.23;7.15;;;;;;;;;;5155492;27;20015;-76
2022/10/20 07:59:33;;;;;;;4.65;3.33;;;;;;;;;;5155988;27;20106;-78
2022/10/20 08:02:19;;;;;;;5.65;3.35;;;;;;;;;;5156174;27;20026;-77
2022/10/20 08:05:05;;;;;;;10.93;3.75;;;;;;;;;;5139999;27;20470;-77
2022/10/20 08:07:51;;;;;;;5.72;3.08;;;;;;;;;;5140876;27;20023;-77
2022/10/20 08:10:37;;;;;;;4.95;2.72;;;;;;;;;;5141150;27;20027;-76
2022/10/20 08:13:26;;;;;;;10.02;3.30;;;;;;;;;;5155363;27;20452;-77
2022/10/20 08:16:12;;;;;;;11.23;3.47;;;;;;;;;;5154532;27;20026;-77
2022/10/20 08:18:58;;;;;;;7.28;3.25;;;;;;;;;;5154956;27;20019;-77
2022/10/20 08:21:43;;;;;;;5.85;2.75;;;;;;;;;;5140431;27;20014;-76
2022/10/20 08:24:29;;;;;;;6.57;2.83;;;;;;;;;;5154807;27;20010;-78
2022/10/20 08:27:14;;;;;;;9.43;3.28;;;;;;;;;;5154583;27;20029;-77
2022/10/20 08:30:00;;;;;;;7.22;3.00;;;;;;;;;;5155434;27;20105;-78
2022/10/20 08:32:49;;;;;;;11.93;4.43;;;;;;;;;;5154837;27;20127;-76
2022/10/20 08:35:35;;;;;;;7.93;2.80;;;;;;;;;;5139581;27;20015;-76
2022/10/20 08:38:21;;;;;;;4.57;2.92;;;;;;;;;;5154405;27;20031;-77
2022/10/20 08:41:14;;;;;;;13.90;2.33;;;;;;;;;;5155207;27;20046;-77
2022/10/20 08:44:01;;;;;;;6.97;2.40;;;;;;;;;;5154940;27;20011;-78
2022/10/20 08:46:47;;;;;;;4.25;2.33;;;;;;;;;;5156114;27;20375;-78
2022/10/20 08:49:33;;;;;;;4.15;2.53;;;;;;;;;;5154948;27;20495;-76
2022/10/20 08:52:21;;;;;;;3.28;2.28;;;;;;;;;;5140498;27;20087;-77
2022/10/20 08:55:09;;;;;;;3.25;2.20;;;;;;;;;;5155424;27;20022;-78
2022/10/20 08:58:06;;;;;;;3.15;2.20;;;;;;;;;;5153228;27;20018;-78
2022/10/20 09:00:56;;;;;;;5.18;2.75;;;;;;;;;;5154749;27;20019;-76
2022/10/20 09:03:42;;;;;;;5.20;2.50;;;;;;;;;;5154309;27;20019;-74
2022/10/20 09:06:27;;;;;;;3.47;2.60;;;;;;;;;;5139089;27;20019;-73
2022/10/20 09:09:15;;;;;;;7.40;4.72;;;;;;;;;;5155922;27;20497;-73
2022/10/20 09:12:03;;;;;;;3.05;2.35;;;;;;;;;;5154063;27;20116;-73
2022/10/20 09:14:49;;;;;;;2.63;2.17;;;;;;;;;;5139237;27;20030;-74
2022/10/20 09:17:34;;;;;;;6.55;2.33;;;;;;;;;;5139788;27;20062;-75
2022/10/20 09:20:29;;;;;;;3.97;2.47;;;;;;;;;;5139471;27;20038;-74
2022/10/20 09:23:16;;;;;;;5.00;2.63;;;;;;;;;;5154726;27;20389;-71
2022/10/20 09:26:02;;;;;;;4.45;2.50;;;;;;;;;;5142686;27;20031;-72
2022/10/20 09:28:49;;;;;;;7.80;2.50;;;;;;;;;;5142393;27;20014;-72
2022/10/20 09:31:36;;;;;;;5.95;2.53;;;;;;;;;;5159253;27;20019;-71
2022/10/20 09:34:26;;;;;;;4.70;2.45;;;;;;;;;;5157141;27;20018;-71
2022/10/20 09:37:12;;;;;;;3.05;2.22;;;;;;;;;;5142077;27;20050;-71
2022/10/20 09:39:58;;;;;;;6.22;2.50;;;;;;;;;;5157462;27;20019;-71
2022/10/20 09:43:06;;;;;;;3.20;2.53;;;;;;;;;;5157765;27;20050;-71
2022/10/20 09:45:53;;;;;;;4.35;2.40;;;;;;;;;;5142321;27;20022;-72
2022/10/20 09:48:45;;;;;;;5.88;2.45;;;;;;;;;;5157564;27;20019;-71
2022/10/20 09:51:31;;;;;;;8.32;2.58;;;;;;;;;;5161868;27;20023;-71
2022/10/20 09:54:18;;;;;;;9.63;3.60;;;;;;;;;;5144753;27;20022;-71
2022/10/20 09:57:06;;;;;;;9.57;2.70;;;;;;;;;;5158585;27;20022;-70
2022/10/20 09:59:52;;;;;;;5.72;2.72;;;;;;;;;;5157657;27;20025;-71
2022/10/20 10:02:38;;;;;;;4.05;2.60;;;;;;;;;;5159008;27;20114;-70
2022/10/20 10:05:31;;;;;;;4.22;2.55;;;;;;;;;;5159712;27;20068;-71
2022/10/20 10:08:17;;;;;;;6.10;2.40;;;;;;;;;;5158824;27;20339;-72
2022/10/20 10:11:04;;;;;;;3.45;2.40;;;;;;;;;;5157238;27;20054;-72
2022/10/20 10:13:50;;;;;;;5.05;2.30;;;;;;;;;;5156992;27;20478;-72
2022/10/20 10:16:40;;;;;;;4.10;2.70;;;;;;;;;;5157113;27;20356;-74
2022/10/20 10:19:28;;;;;;;2.97;2.25;;;;;;;;;;5157212;27;20018;-73
2022/10/20 10:22:13;;;;;;;6.32;2.70;;;;;;;;;;5142389;27;20122;-73
2022/10/20 10:25:00;;;;;;;6.40;2.60;;;;;;;;;;5157140;27;20015;-73
2022/10/20 10:27:59;;;;;;;4.88;2.63;;;;;;;;;;5156743;27;20429;-73
2022/10/20 10:30:44;;;;;;;4.00;2.60;;;;;;;;;;5142200;27;20110;-71
2022/10/20 10:33:32;;;;;;;3.25;2.55;;;;;;;;;;5156991;27;20082;-71
2022/10/20 10:36:24;;;;;;;4.50;2.65;;;;;;;;;;5155962;27;20098;-71
2022/10/20 10:39:11;;;;;;;5.43;2.90;;;;;;;;;;5141315;27;20023;-71
2022/10/20 10:42:12;;;;;;;4.22;2.33;;;;;;;;;;5142444;27;20126;-71
2022/10/20 10:45:07;;;;;;;5.68;3.00;;;;;;;;;;5156584;27;20027;-71
2022/10/20 10:47:58;;;;;;;3.55;2.50;;;;;;;;;;5156860;27;20090;-71
2022/10/20 10:50:53;;;;;;;10.73;3.08;;;;;;;;;;5157279;27;20086;-72
2022/10/20 10:53:50;;;;;;;3.53;2.47;;;;;;;;;;5157015;27;20030;-71
2022/10/20 10:56:49;;;;;;;6.13;2.58;;;;;;;;;;5156109;27;20021;-72
2022/10/20 10:59:35;;;;;;;3.45;2.28;;;;;;;;;;5157106;27;20019;-71
2022/10/20 11:02:24;;;;;;;5.65;3.83;;;;;;;;;;5162294;27;20025;-71
2022/10/20 11:05:28;;;;;;;5.38;2.53;;;;;;;;;;5157497;27;20022;-71
2022/10/20 11:08:20;;;;;;;4.68;2.42;;;;;;;;;;5154916;27;20027;-72
2022/10/20 11:11:18;;;;;;;4.75;2.40;;;;;;;;;;5155438;27;20027;-71
2022/10/20 11:14:09;;;;;;;5.57;2.65;;;;;;;;;;5156414;27;20054;-72
2022/10/20 11:17:01;;;;;;;5.25;2.78;;;;;;;;;;5156278;27;20018;-72
2022/10/20 11:19:56;;;;;;;4.30;2.67;;;;;;;;;;5156045;27;20457;-71
2022/10/20 11:22:42;;;;;;;6.10;2.17;;;;;;;;;;5156758;27;20501;-71
2022/10/20 11:26:00;;;;;;;4.05;2.50;;;;;;;;;;5155661;27;20532;-72
2022/10/20 11:28:47;;;;;;;2.97;2.20;;;;;;;;;;5123787;27;20452;-72
2022/10/20 11:31:42;;;;;;;7.80;2.60;;;;;;;;;;5140682;27;20023;-72
2022/10/20 11:34:44;;;;;;;8.40;2.80;;;;;;;;;;5155810;27;20015;-73
2022/10/20 11:37:38;;;;;;;6.65;2.40;;;;;;;;;;5155798;27;20042;-72
2022/10/20 11:40:28;;;;;;;6.20;2.60;;;;;;;;;;5155041;27;20023;-72
2022/10/20 11:43:32;;;;;;;3.70;2.50;;;;;;;;;;5141029;27;20071;-72
2022/10/20 11:46:21;;;;;;;4.32;2.78;;;;;;;;;;5155246;27;20022;-72
2022/10/20 11:49:07;;;;;;;4.32;2.60;;;;;;;;;;5137916;27;20042;-72
2022/10/20 11:52:12;;;;;;;5.85;2.72;;;;;;;;;;5155261;27;20400;-72
2022/10/20 11:55:04;;;;;;;5.93;2.70;;;;;;;;;;5140527;27;20078;-72
2022/10/20 11:57:52;;;;;;;5.75;3.10;;;;;;;;;;5139897;27;20114;-72
2022/10/20 12:00:38;;;;;;;4.68;2.70;;;;;;;;;;5155058;27;20039;-71
2022/10/20 12:03:33;;;;;;;7.53;3.13;;;;;;;;;;5155325;27;20460;-72
2022/10/20 12:06:22;;;;;;;5.03;2.70;;;;;;;;;;5155053;27;20034;-72
2022/10/20 12:09:19;;;;;;;4.78;2.55;;;;;;;;;;5156114;27;20151;-72
2022/10/20 12:12:12;;;;;;;5.93;2.38;;;;;;;;;;5155681;27;20468;-72
2022/10/20 12:14:59;;;;;;;4.95;2.65;;;;;;;;;;5140000;27;20015;-72
2022/10/20 12:17:45;;;;;;;5.72;2.72;;;;;;;;;;5155577;27;20029;-72
2022/10/20 12:20:37;;;;;;;3.10;2.38;;;;;;;;;;5155204;27;20027;-72
2022/10/20 12:23:41;;;;;;;3.75;2.47;;;;;;;;;;5155328;27;20402;-72
2022/10/20 12:26:32;;;;;;;2.95;2.40;;;;;;;;;;5155132;27;20086;-71
2022/10/20 12:29:33;;;;;;;4.60;2.67;;;;;;;;;;5155779;27;20015;-71
2022/10/20 12:32:28;;;;;;;22.05;5.65;;;;;;;;;;5140581;27;20102;-71
2022/10/20 12:35:14;;;;;;;5.00;2.88;;;;;;;;;;5154204;27;20023;-71
2022/10/20 12:38:01;;;;;;;8.68;3.25;;;;;;;;;;5153752;27;20039;-72
2022/10/20 12:40:56;;;;;;;12.52;4.18;;;;;;;;;;5154922;27;20450;-72
2022/10/20 12:43:49;;;;;;;5.28;3.08;;;;;;;;;;5155119;27;20412;-71
2022/10/20 12:46:37;;;;;;;5.00;3.17;;;;;;;;;;5140146;27;20019;-71
2022/10/20 12:49:27;;;;;;;4.55;2.80;;;;;;;;;;5154592;27;20041;-72
2022/10/20 12:52:18;;;;;;;3.17;2.70;;;;;;;;;;5139796;27;20026;-71
2022/10/20 12:55:12;;;;;;;5.20;2.55;;;;;;;;;;5154345;27;20363;-71
2022/10/20 12:58:10;;;;;;;5.78;3.00;;;;;;;;;;5140129;27;20011;-71
2022/10/20 13:00:57;;;;;;;6.88;2.95;;;;;;;;;;5158265;27;20023;-71
2022/10/20 13:03:45;;;;;;;6.35;3.33;;;;;;;;;;5159140;27;20470;-72
2022/10/20 13:06:37;;;;;;;7.40;3.40;;;;;;;;;;5158935;27;20037;-72
2022/10/20 13:09:23;;;;;;;5.93;2.97;;;;;;;;;;5158799;27;20026;-72
2022/10/20 13:12:24;;;;;;;4.88;2.83;;;;;;;;;;5158734;27;20015;-71
2022/10/20 13:15:11;;;;;;;5.00;2.80;;;;;;;;;;5159152;27;20023;-72
2022/10/20 13:18:00;;;;;;;5.03;2.97;;;;;;;;;;5157946;27;20040;-71
2022/10/20 13:21:14;;;;;;;4.80;2.80;;;;;;;;;;5143706;27;20018;-71
2022/10/20 13:23:59;;;;;;;8.60;3.47;;;;;;;;;;5159061;27;20022;-71
2022/10/20 13:26:47;;;;;;;7.28;3.15;;;;;;;;;;5158630;27;20463;-70
2022/10/20 13:29:35;;;;;;;8.30;2.83;;;;;;;;;;5158484;27;20031;-70
2022/10/20 13:32:25;;;;;;;7.75;3.10;;;;;;;;;;5158039;27;20033;-71
2022/10/20 13:35:42;;;;;;;12.73;3.13;;;;;;;;;;5160439;27;20023;-73
2022/10/20 13:38:31;;;;;;;6.85;3.15;;;;;;;;;;5110742;27;20476;-72
2022/10/20 13:41:17;;;;;;;7.10;3.13;;;;;;;;;;5157759;27;20027;-71
2022/10/20 13:44:09;;;;;;;12.52;3.70;;;;;;;;;;5158013;27;20030;-71
2022/10/20 13:47:13;;;;;;;12.25;3.10;;;;;;;;;;5157653;27;20046;-71
2022/10/20 13:50:07;;;;;;;5.30;2.70;;;;;;;;;;5143018;27;20340;-71
2022/10/20 13:52:55;;;;;;;9.05;2.88;;;;;;;;;;5157904;27;20364;-72
2022/10/20 13:56:07;;;;;;;9.35;3.25;;;;;;;;;;5158384;27;20022;-70
2022/10/20 13:59:00;;;;;;;7.53;3.30;;;;;;;;;;5124696;27;20019;-71
2022/10/20 14:01:47;;;;;;;7.43;2.92;;;;;;;;;;5157884;27;20075;-80
2022/10/20 14:04:33;;;;;;;8.43;3.35;;;;;;;;;;5157850;27;20047;-77
2022/10/20 14:07:19;;;;;;;6.07;3.42;;;;;;;;;;5158503;27;20022;-75
2022/10/20 14:10:05;;;;;;;7.13;3.58;;;;;;;;;;5142215;27;20023;-76
2022/10/20 14:12:52;;;;;;;10.10;3.40;;;;;;;;;;5142086;27;20022;-77
2022/10/20 14:15:37;;;;;;;8.98;3.33;;;;;;;;;;5144321;27;20340;-76
2022/10/20 14:18:27;;;;;;;6.57;2.97;;;;;;;;;;5157655;27;20376;-75
2022/10/20 14:21:15;;;;;;;9.63;3.33;;;;;;;;;;5157264;27;20033;-77
2022/10/20 14:24:01;;;;;;;9.68;3.47;;;;;;;;;;5158461;27;20440;-76
2022/10/20 14:26:47;;;;;;;11.00;3.60;;;;;;;;;;5143238;27;20105;-76
2022/10/20 14:29:38;;;;;;;17.27;4.40;;;;;;;;;;5157403;27;20475;-75
2022/10/20 14:32:25;;;;;;;9.30;4.40;;;;;;;;;;5157069;27;20034;-77
2022/10/20 14:35:15;;;;;;;13.27;4.63;;;;;;;;;;5157256;27;20011;-76
2022/10/20 14:38:02;;;;;;;14.00;4.50;;;;;;;;;;5141287;27;20050;-76
2022/10/20 14:40:49;;;;;;;16.10;4.90;;;;;;;;;;5157939;27;20034;-76
2022/10/20 14:43:46;;;;;;;14.43;4.45;;;;;;;;;;5157973;27;20466;-77
2022/10/20 14:46:36;;;;;;;7.88;3.90;;;;;;;;;;5156621;27;20122;-76
2022/10/20 14:49:29;;;;;;;15.77;4.43;;;;;;;;;;5156316;27;20023;-75
2022/10/20 14:52:15;;;;;;;9.10;4.18;;;;;;;;;;5156382;27;20018;-76
2022/10/20 14:55:00;;;;;;;16.45;4.38;;;;;;;;;;5156649;27;20019;-75
2022/10/20 14:57:46;;;;;;;13.43;4.78;;;;;;;;;;5157201;27;20010;-74
2022/10/20 15:00:33;;;;;;;13.80;5.15;;;;;;;;;;5161096;27;20022;-75
2022/10/20 15:03:18;;;;;;;13.52;4.07;;;;;;;;;;5155876;27;20018;-73
2022/10/20 15:06:04;;;;;;;11.35;4.15;;;;;;;;;;5158277;27;20030;-73
2022/10/20 15:08:54;;;;;;;13.55;4.45;;;;;;;;;;5178221;27;20007;-75
2022/10/20 15:11:39;;;;;;;7.40;4.25;;;;;;;;;;5165359;27;20015;-74
2022/10/20 15:14:25;;;;;;;5.30;3.67;;;;;;;;;;5158517;27;20363;-75
2022/10/20 15:17:30;;;;;;;14.65;3.80;;;;;;;;;;5158304;27;20015;-75
2022/10/20 15:20:42;;;;;;;10.82;3.30;;;;;;;;;;5157852;27;20463;-73
2022/10/20 15:23:28;;;;;;;13.38;4.40;;;;;;;;;;5155154;27;20061;-72
2022/10/20 15:26:13;;;;;;;10.10;3.53;;;;;;;;;;5141311;27;20019;-73
2022/10/20 15:28:59;;;;;;;8.50;4.15;;;;;;;;;;5155885;27;20344;-74
2022/10/20 15:31:44;;;;;;;23.15;10.45;;;;;;;;;;5141330;27;20064;-74
2022/10/20 15:34:30;;;;;;;14.52;6.72;;;;;;;;;;5156470;27;20084;-72
2022/10/20 15:37:16;;;;;;;7.88;4.10;;;;;;;;;;5156585;27;20073;-72
2022/10/20 15:40:01;;;;;;;7.68;4.00;;;;;;;;;;5155553;27;20015;-72
2022/10/20 15:42:47;;;;;;;7.72;3.92;;;;;;;;;;5160689;27;20061;-70
2022/10/20 15:45:36;;;;;;;10.02;3.78;;;;;;;;;;5172634;27;20026;-70
2022/10/20 15:48:24;;;;;;;13.10;3.83;;;;;;;;;;5157321;27;20018;-72
2022/10/20 15:51:30;;;;;;;8.57;3.90;;;;;;;;;;5141040;27;20023;-72
2022/10/20 15:54:17;;;;;;;13.82;4.85;;;;;;;;;;5155385;27;20019;-72
2022/10/20 15:57:03;;;;;;;13.18;4.28;;;;;;;;;;5156821;27;20436;-72
2022/10/20 15:59:48;;;;;;;10.88;4.47;;;;;;;;;;5155379;27;20019;-71
2022/10/20 16:02:34;;;;;;;7.75;4.13;;;;;;;;;;5154928;27;20030;-71
2022/10/20 16:05:22;;;;;;;15.55;4.75;;;;;;;;;;5155623;27;20034;-74
2022/10/20 16:08:07;;;;;;;11.02;5.65;;;;;;;;;;5154239;27;20030;-75
2022/10/20 16:10:54;;;;;;;9.65;5.32;;;;;;;;;;5156484;27;20027;-74
2022/10/20 16:13:41;;;;;;;12.13;5.90;;;;;;;;;;5155881;27;20019;-75
2022/10/20 16:16:26;;;;;;;15.45;6.70;;;;;;;;;;5155205;27;20504;-77
2022/10/20 16:19:12;;;;;;;15.57;6.50;;;;;;;;;;5155187;27;20023;-76
2022/10/20 16:21:58;;;;;;;20.80;7.40;;;;;;;;;;5154876;27;20022;-77
2022/10/20 16:24:44;;;;;;;13.27;6.88;;;;;;;;;;5154791;27;20022;-75
2022/10/20 16:27:31;;;;;;;13.98;7.25;;;;;;;;;;5154618;27;20023;-77
2022/10/20 16:30:17;;;;;;;12.65;6.80;;;;;;;;;;5155800;27;20023;-74
2022/10/20 16:33:02;;;;;;;11.50;6.28;;;;;;;;;;5155637;27;20026;-75
2022/10/20 16:35:48;;;;;;;16.90;7.88;;;;;;;;;;5162293;27;20022;-77